Skip Navigation LinksHome page > Weather > Current weather Skip Navigation Links

Current Weather

Sarh, Chad

For information only: do not use for flight planning or navigation.
Latest weather
Observation time Wednesday, February 22, 2017 9:00 AM WAT
Local time Wednesday, February 22, 2017 9:22 AM WAT
Flight conditions Visual Meteorological Conditions
Winds
Wind direction North (360°)
Wind speed 16 mph
Visibility 6.2 mi.
Sky condition
Ceiling unlimited
Sky clear
Temperature 84°F
Dewpoint 37°F
Altimeter 29.94 in.Hg
Derived measurements
Relative humidity 19%
Heat index 84°F
Density altitude 2063 ft.
Remarks
Ceiling and visibility OK.
METAR FTTA 220800Z 36014KT CAVOK 29/03 Q1014

Settings

Location code

InnerDrive.Weather 4.0.6144.1 Release CLR 4.0.30319.34209
Copyright ©2015 Inner Drive Technology. All rights reserved. Portions Copyright ©1986-2015 David Braverman.

Find weather

Site navigation


Skip Navigation Links

Place info

Page info

PayPal - The safer, easier way to pay online!

Return home.

Copyright ©2017 Inner Drive Technology. Purveyors of fine, hand-crafted computer software. Page printed 2017-02-22T08:22:22 UTC.